Tucson, Arizona
Current Conditions -  °F | °C
As of 4:58 AM on Sunday 25 Jan 2015 (Local Time) from KDMA Reporting Station
Clear Clear  
Wind Chill: 51°   Ceiling: Unl
Heat Index: 51°   Visibility: 10mi
Dew Point: 12°   Wind: 9mph
Humidity: 21%   Direction: 140°SE
Pressure: 30.08"   Gusts: NA
Location:  32.22°N, 110.96°W
Report Text: KDMA 251158Z AUTO 14008KT 10SM CLR 10/M11 A3008 RMK AO2 SLP164 T01041112 10127 20104 58002 $
Loading
Personal Weather Stations






























Interactive Weather Map New forecast layout! Learn more

10-Day Weather Forecast

Advertisements
Track Severe Weather on mobile